sensor_id;sensor_type;location;lat;lon;timestamp;temperature;humidity
11818;DHT22;5966;52.402;5.322;2023-05-07T00:01:03;14.60;99.90
11818;DHT22;5966;52.402;5.322;2023-05-07T00:03:32;14.60;99.90
11818;DHT22;5966;52.402;5.322;2023-05-07T00:06:00;14.60;99.90
11818;DHT22;5966;52.402;5.322;2023-05-07T00:08:28;14.60;99.90
11818;DHT22;5966;52.402;5.322;2023-05-07T00:10:58;14.50;99.90
11818;DHT22;5966;52.402;5.322;2023-05-07T00:13:25;14.50;99.90
11818;DHT22;5966;52.402;5.322;2023-05-07T00:15:54;14.50;99.90
11818;DHT22;5966;52.402;5.322;2023-05-07T00:18:22;14.50;99.90
11818;DHT22;5966;52.402;5.322;2023-05-07T00:20:50;14.60;99.90
11818;DHT22;5966;52.402;5.322;2023-05-07T00:23:17;14.60;99.90
11818;DHT22;5966;52.402;5.322;2023-05-07T00:25:45;14.60;99.90
11818;DHT22;5966;52.402;5.322;2023-05-07T00:28:15;14.60;99.90
11818;DHT22;5966;52.402;5.322;2023-05-07T00:30:43;14.60;99.90
11818;DHT22;5966;52.402;5.322;2023-05-07T00:33:11;14.60;99.90
11818;DHT22;5966;52.402;5.322;2023-05-07T00:35:39;14.50;99.90
11818;DHT22;5966;52.402;5.322;2023-05-07T00:38:07;14.40;99.90
11818;DHT22;5966;52.402;5.322;2023-05-07T00:40:35;14.40;99.90
11818;DHT22;5966;52.402;5.322;2023-05-07T00:43:03;14.30;99.90
11818;DHT22;5966;52.402;5.322;2023-05-07T00:45:33;14.30;99.90
11818;DHT22;5966;52.402;5.322;2023-05-07T00:48:02;14.30;99.90
11818;DHT22;5966;52.402;5.322;2023-05-07T00:50:33;14.30;99.90
11818;DHT22;5966;52.402;5.322;2023-05-07T00:53:01;14.30;99.90
11818;DHT22;5966;52.402;5.322;2023-05-07T00:55:29;14.20;99.90
11818;DHT22;5966;52.402;5.322;2023-05-07T00:57:57;14.20;99.90
11818;DHT22;5966;52.402;5.322;2023-05-07T01:00:25;14.20;99.90
11818;DHT22;5966;52.402;5.322;2023-05-07T01:02:55;14.10;99.90
11818;DHT22;5966;52.402;5.322;2023-05-07T01:05:24;14.10;99.90
11818;DHT22;5966;52.402;5.322;2023-05-07T01:07:53;14.10;99.90
11818;DHT22;5966;52.402;5.322;2023-05-07T01:10:22;14.10;99.90
11818;DHT22;5966;52.402;5.322;2023-05-07T01:12:50;14.10;99.90
11818;DHT22;5966;52.402;5.322;2023-05-07T01:15:19;14.20;99.90
11818;DHT22;5966;52.402;5.322;2023-05-07T01:17:47;14.20;99.90
11818;DHT22;5966;52.402;5.322;2023-05-07T01:20:18;14.30;99.90
11818;DHT22;5966;52.402;5.322;2023-05-07T01:22:48;14.30;99.90
11818;DHT22;5966;52.402;5.322;2023-05-07T01:25:16;14.40;99.90
11818;DHT22;5966;52.402;5.322;2023-05-07T01:27:46;14.40;99.90
11818;DHT22;5966;52.402;5.322;2023-05-07T01:30:14;14.40;99.90
11818;DHT22;5966;52.402;5.322;2023-05-07T01:32:47;14.40;99.90
11818;DHT22;5966;52.402;5.322;2023-05-07T01:35:19;14.40;99.90
11818;DHT22;5966;52.402;5.322;2023-05-07T01:37:50;14.40;99.90
11818;DHT22;5966;52.402;5.322;2023-05-07T01:40:19;14.40;99.90
11818;DHT22;5966;52.402;5.322;2023-05-07T01:42:47;14.40;99.90
11818;DHT22;5966;52.402;5.322;2023-05-07T01:45:18;14.40;99.90
11818;DHT22;5966;52.402;5.322;2023-05-07T01:47:50;14.40;99.90
11818;DHT22;5966;52.402;5.322;2023-05-07T01:50:19;14.30;99.90
11818;DHT22;5966;52.402;5.322;2023-05-07T01:52:52;14.20;99.90
11818;DHT22;5966;52.402;5.322;2023-05-07T01:55:20;14.20;99.90
11818;DHT22;5966;52.402;5.322;2023-05-07T01:57:48;14.20;99.90
11818;DHT22;5966;52.402;5.322;2023-05-07T02:00:18;14.20;99.90
11818;DHT22;5966;52.402;5.322;2023-05-07T02:02:46;14.20;99.90
11818;DHT22;5966;52.402;5.322;2023-05-07T02:05:14;14.10;99.90
11818;DHT22;5966;52.402;5.322;2023-05-07T02:07:42;14.20;99.90
11818;DHT22;5966;52.402;5.322;2023-05-07T02:10:15;14.20;99.90
11818;DHT22;5966;52.402;5.322;2023-05-07T02:12:43;14.20;99.90
11818;DHT22;5966;52.402;5.322;2023-05-07T02:15:11;14.30;99.90
11818;DHT22;5966;52.402;5.322;2023-05-07T02:17:58;14.30;99.90
11818;DHT22;5966;52.402;5.322;2023-05-07T02:20:29;14.30;99.90
11818;DHT22;5966;52.402;5.322;2023-05-07T02:22:57;14.30;99.90
11818;DHT22;5966;52.402;5.322;2023-05-07T02:25:26;14.30;99.90
11818;DHT22;5966;52.402;5.322;2023-05-07T02:27:54;14.30;99.90
11818;DHT22;5966;52.402;5.322;2023-05-07T02:30:22;14.30;99.90
11818;DHT22;5966;52.402;5.322;2023-05-07T02:32:51;14.30;99.90
11818;DHT22;5966;52.402;5.322;2023-05-07T02:35:19;14.20;99.90
11818;DHT22;5966;52.402;5.322;2023-05-07T02:37:47;14.20;99.90
11818;DHT22;5966;52.402;5.322;2023-05-07T02:40:15;14.20;99.90
11818;DHT22;5966;52.402;5.322;2023-05-07T02:42:44;14.20;99.90
11818;DHT22;5966;52.402;5.322;2023-05-07T02:45:12;14.20;99.90
11818;DHT22;5966;52.402;5.322;2023-05-07T02:47:41;14.20;99.90
11818;DHT22;5966;52.402;5.322;2023-05-07T02:50:09;14.30;99.90
11818;DHT22;5966;52.402;5.322;2023-05-07T02:52:38;14.30;99.90
11818;DHT22;5966;52.402;5.322;2023-05-07T02:55:07;14.20;99.90
11818;DHT22;5966;52.402;5.322;2023-05-07T02:57:35;14.20;99.90
11818;DHT22;5966;52.402;5.322;2023-05-07T03:00:16;14.20;99.90
11818;DHT22;5966;52.402;5.322;2023-05-07T03:02:44;14.20;99.90
11818;DHT22;5966;52.402;5.322;2023-05-07T03:05:12;14.20;99.90
11818;DHT22;5966;52.402;5.322;2023-05-07T03:07:41;14.20;99.90
11818;DHT22;5966;52.402;5.322;2023-05-07T03:10:11;14.20;99.90
11818;DHT22;5966;52.402;5.322;2023-05-07T03:12:39;14.20;99.90
11818;DHT22;5966;52.402;5.322;2023-05-07T03:15:08;14.20;99.90
11818;DHT22;5966;52.402;5.322;2023-05-07T03:17:38;14.20;99.90
11818;DHT22;5966;52.402;5.322;2023-05-07T03:20:07;14.10;99.90
11818;DHT22;5966;52.402;5.322;2023-05-07T03:22:37;14.10;99.90
11818;DHT22;5966;52.402;5.322;2023-05-07T03:25:07;14.20;99.90
11818;DHT22;5966;52.402;5.322;2023-05-07T03:27:36;14.10;99.90
11818;DHT22;5966;52.402;5.322;2023-05-07T03:30:05;14.10;99.90
11818;DHT22;5966;52.402;5.322;2023-05-07T03:32:33;14.10;99.90
11818;DHT22;5966;52.402;5.322;2023-05-07T03:35:05;14.00;99.90
11818;DHT22;5966;52.402;5.322;2023-05-07T03:37:34;14.00;99.90
11818;DHT22;5966;52.402;5.322;2023-05-07T03:40:03;14.00;99.90
11818;DHT22;5966;52.402;5.322;2023-05-07T03:42:31;14.00;99.90
11818;DHT22;5966;52.402;5.322;2023-05-07T03:44:59;14.00;99.90
11818;DHT22;5966;52.402;5.322;2023-05-07T03:47:26;13.90;99.90
11818;DHT22;5966;52.402;5.322;2023-05-07T03:49:55;13.90;99.90
11818;DHT22;5966;52.402;5.322;2023-05-07T03:52:24;13.90;99.90
11818;DHT22;5966;52.402;5.322;2023-05-07T03:54:53;13.90;99.90
11818;DHT22;5966;52.402;5.322;2023-05-07T03:57:22;13.90;99.90
11818;DHT22;5966;52.402;5.322;2023-05-07T03:59:49;13.90;99.90
11818;DHT22;5966;52.402;5.322;2023-05-07T04:02:21;13.90;99.90
11818;DHT22;5966;52.402;5.322;2023-05-07T04:04:50;13.90;99.90
11818;DHT22;5966;52.402;5.322;2023-05-07T04:07:17;13.90;99.90
11818;DHT22;5966;52.402;5.322;2023-05-07T04:09:47;13.90;99.90
11818;DHT22;5966;52.402;5.322;2023-05-07T04:12:15;13.90;99.90
11818;DHT22;5966;52.402;5.322;2023-05-07T04:14:49;13.90;99.90
11818;DHT22;5966;52.402;5.322;2023-05-07T04:17:17;13.90;99.90
11818;DHT22;5966;52.402;5.322;2023-05-07T04:19:47;13.90;99.90
11818;DHT22;5966;52.402;5.322;2023-05-07T04:22:15;13.90;99.90
11818;DHT22;5966;52.402;5.322;2023-05-07T04:24:43;13.90;99.90
11818;DHT22;5966;52.402;5.322;2023-05-07T04:27:12;13.90;99.90
11818;DHT22;5966;52.402;5.322;2023-05-07T04:29:40;13.90;99.90
11818;DHT22;5966;52.402;5.322;2023-05-07T04:32:13;13.90;99.90
11818;DHT22;5966;52.402;5.322;2023-05-07T04:34:41;13.90;99.90
11818;DHT22;5966;52.402;5.322;2023-05-07T04:37:09;13.90;99.90
11818;DHT22;5966;52.402;5.322;2023-05-07T04:39:37;14.00;99.90
11818;DHT22;5966;52.402;5.322;2023-05-07T04:42:06;14.00;99.90
11818;DHT22;5966;52.402;5.322;2023-05-07T04:44:37;14.00;99.90
11818;DHT22;5966;52.402;5.322;2023-05-07T04:47:05;14.00;99.90
11818;DHT22;5966;52.402;5.322;2023-05-07T04:49:33;14.00;99.90
11818;DHT22;5966;52.402;5.322;2023-05-07T04:52:01;14.00;99.90
11818;DHT22;5966;52.402;5.322;2023-05-07T04:54:30;14.00;99.90
11818;DHT22;5966;52.402;5.322;2023-05-07T04:56:57;13.90;99.90
11818;DHT22;5966;52.402;5.322;2023-05-07T04:59:28;13.90;99.90
11818;DHT22;5966;52.402;5.322;2023-05-07T05:01:57;13.90;99.90
11818;DHT22;5966;52.402;5.322;2023-05-07T05:04:25;13.90;99.90
11818;DHT22;5966;52.402;5.322;2023-05-07T05:06:53;13.90;99.90
11818;DHT22;5966;52.402;5.322;2023-05-07T05:09:21;14.00;99.90
11818;DHT22;5966;52.402;5.322;2023-05-07T05:11:52;14.00;99.90
11818;DHT22;5966;52.402;5.322;2023-05-07T05:14:28;14.00;99.90
11818;DHT22;5966;52.402;5.322;2023-05-07T05:16:57;14.00;99.90
11818;DHT22;5966;52.402;5.322;2023-05-07T05:19:28;14.00;99.90
11818;DHT22;5966;52.402;5.322;2023-05-07T05:21:59;14.00;99.90
11818;DHT22;5966;52.402;5.322;2023-05-07T05:24:30;14.10;99.90
11818;DHT22;5966;52.402;5.322;2023-05-07T05:26:58;14.10;99.90
11818;DHT22;5966;52.402;5.322;2023-05-07T05:29:30;14.10;99.90
11818;DHT22;5966;52.402;5.322;2023-05-07T05:32:04;14.10;99.90
11818;DHT22;5966;52.402;5.322;2023-05-07T05:34:35;14.10;99.90
11818;DHT22;5966;52.402;5.322;2023-05-07T05:37:04;14.10;99.90
11818;DHT22;5966;52.402;5.322;2023-05-07T05:39:45;14.20;99.90
11818;DHT22;5966;52.402;5.322;2023-05-07T05:42:28;14.20;99.90
11818;DHT22;5966;52.402;5.322;2023-05-07T05:44:57;14.20;99.90
11818;DHT22;5966;52.402;5.322;2023-05-07T05:47:26;14.20;99.90
11818;DHT22;5966;52.402;5.322;2023-05-07T05:49:55;14.20;99.90
11818;DHT22;5966;52.402;5.322;2023-05-07T05:52:22;14.30;99.90
11818;DHT22;5966;52.402;5.322;2023-05-07T05:54:52;14.30;99.90
11818;DHT22;5966;52.402;5.322;2023-05-07T05:57:20;14.30;99.90
11818;DHT22;5966;52.402;5.322;2023-05-07T05:59:48;14.40;99.90
11818;DHT22;5966;52.402;5.322;2023-05-07T06:02:16;14.40;99.90
11818;DHT22;5966;52.402;5.322;2023-05-07T06:04:48;14.50;99.90
11818;DHT22;5966;52.402;5.322;2023-05-07T06:07:17;14.50;99.90
11818;DHT22;5966;52.402;5.322;2023-05-07T06:09:48;14.60;99.90
11818;DHT22;5966;52.402;5.322;2023-05-07T06:12:18;14.60;99.90
11818;DHT22;5966;52.402;5.322;2023-05-07T06:14:48;14.60;99.90
11818;DHT22;5966;52.402;5.322;2023-05-07T06:17:17;14.60;99.90
11818;DHT22;5966;52.402;5.322;2023-05-07T06:19:49;14.60;99.90
11818;DHT22;5966;52.402;5.322;2023-05-07T06:22:17;14.70;99.90
11818;DHT22;5966;52.402;5.322;2023-05-07T06:24:45;14.70;99.90
11818;DHT22;5966;52.402;5.322;2023-05-07T06:27:13;14.70;99.90
11818;DHT22;5966;52.402;5.322;2023-05-07T06:29:41;14.70;99.90
11818;DHT22;5966;52.402;5.322;2023-05-07T06:32:10;14.70;99.90
11818;DHT22;5966;52.402;5.322;2023-05-07T06:34:39;14.80;99.90
11818;DHT22;5966;52.402;5.322;2023-05-07T06:37:08;14.80;99.90
11818;DHT22;5966;52.402;5.322;2023-05-07T06:39:36;14.80;99.90
11818;DHT22;5966;52.402;5.322;2023-05-07T06:42:05;14.80;99.90
11818;DHT22;5966;52.402;5.322;2023-05-07T06:44:33;14.80;99.90
11818;DHT22;5966;52.402;5.322;2023-05-07T06:47:01;14.80;99.90
11818;DHT22;5966;52.402;5.322;2023-05-07T06:49:29;14.90;99.90
11818;DHT22;5966;52.402;5.322;2023-05-07T06:51:58;14.90;99.90
11818;DHT22;5966;52.402;5.322;2023-05-07T06:54:28;14.80;99.90
11818;DHT22;5966;52.402;5.322;2023-05-07T06:56:56;14.80;99.90
11818;DHT22;5966;52.402;5.322;2023-05-07T06:59:25;14.80;99.90
11818;DHT22;5966;52.402;5.322;2023-05-07T07:01:53;14.80;99.90
11818;DHT22;5966;52.402;5.322;2023-05-07T07:04:21;14.80;99.90
11818;DHT22;5966;52.402;5.322;2023-05-07T07:06:52;14.90;99.90
11818;DHT22;5966;52.402;5.322;2023-05-07T07:09:20;14.90;99.90
11818;DHT22;5966;52.402;5.322;2023-05-07T07:11:51;14.90;99.90
11818;DHT22;5966;52.402;5.322;2023-05-07T07:14:19;14.90;99.90
11818;DHT22;5966;52.402;5.322;2023-05-07T07:16:47;14.90;99.90
11818;DHT22;5966;52.402;5.322;2023-05-07T07:19:15;15.00;99.90
11818;DHT22;5966;52.402;5.322;2023-05-07T07:21:43;15.10;99.90
11818;DHT22;5966;52.402;5.322;2023-05-07T07:24:13;15.20;99.90
11818;DHT22;5966;52.402;5.322;2023-05-07T07:26:46;15.20;99.90
11818;DHT22;5966;52.402;5.322;2023-05-07T07:29:15;15.30;99.90
11818;DHT22;5966;52.402;5.322;2023-05-07T07:31:43;15.40;99.90
11818;DHT22;5966;52.402;5.322;2023-05-07T07:34:11;15.40;99.90
11818;DHT22;5966;52.402;5.322;2023-05-07T07:36:38;15.40;99.90
11818;DHT22;5966;52.402;5.322;2023-05-07T07:39:12;15.30;99.90
11818;DHT22;5966;52.402;5.322;2023-05-07T07:41:40;15.30;99.90
11818;DHT22;5966;52.402;5.322;2023-05-07T07:44:08;15.30;99.90
11818;DHT22;5966;52.402;5.322;2023-05-07T07:46:43;15.30;99.90
11818;DHT22;5966;52.402;5.322;2023-05-07T07:49:11;15.20;99.90
11818;DHT22;5966;52.402;5.322;2023-05-07T07:51:39;15.20;99.90
11818;DHT22;5966;52.402;5.322;2023-05-07T07:54:07;15.20;99.90
11818;DHT22;5966;52.402;5.322;2023-05-07T07:56:35;15.30;99.90
11818;DHT22;5966;52.402;5.322;2023-05-07T07:59:03;15.30;99.90
11818;DHT22;5966;52.402;5.322;2023-05-07T08:01:31;15.30;99.90
11818;DHT22;5966;52.402;5.322;2023-05-07T08:04:00;15.40;99.90
11818;DHT22;5966;52.402;5.322;2023-05-07T08:06:30;15.60;99.90
11818;DHT22;5966;52.402;5.322;2023-05-07T08:08:59;15.70;99.90
11818;DHT22;5966;52.402;5.322;2023-05-07T08:11:27;15.80;99.90
11818;DHT22;5966;52.402;5.322;2023-05-07T08:13:56;15.80;99.90
11818;DHT22;5966;52.402;5.322;2023-05-07T08:16:24;15.90;99.90
11818;DHT22;5966;52.402;5.322;2023-05-07T08:18:52;15.90;99.90
11818;DHT22;5966;52.402;5.322;2023-05-07T08:21:22;16.10;99.90
11818;DHT22;5966;52.402;5.322;2023-05-07T08:23:50;16.30;99.90
11818;DHT22;5966;52.402;5.322;2023-05-07T08:26:18;16.30;99.90
11818;DHT22;5966;52.402;5.322;2023-05-07T08:28:47;16.30;99.90
11818;DHT22;5966;52.402;5.322;2023-05-07T08:31:16;16.30;99.90
11818;DHT22;5966;52.402;5.322;2023-05-07T08:33:44;16.30;99.90
11818;DHT22;5966;52.402;5.322;2023-05-07T08:36:12;16.40;99.90
11818;DHT22;5966;52.402;5.322;2023-05-07T08:38:41;16.40;99.90
11818;DHT22;5966;52.402;5.322;2023-05-07T08:41:12;16.40;99.90
11818;DHT22;5966;52.402;5.322;2023-05-07T08:43:41;16.50;99.90
11818;DHT22;5966;52.402;5.322;2023-05-07T08:46:09;16.50;99.90
11818;DHT22;5966;52.402;5.322;2023-05-07T08:48:38;16.60;99.90
11818;DHT22;5966;52.402;5.322;2023-05-07T08:51:08;16.70;99.90
11818;DHT22;5966;52.402;5.322;2023-05-07T08:53:36;16.70;99.90
11818;DHT22;5966;52.402;5.322;2023-05-07T08:56:10;16.70;99.90
11818;DHT22;5966;52.402;5.322;2023-05-07T08:58:38;16.70;99.90
11818;DHT22;5966;52.402;5.322;2023-05-07T09:01:08;16.70;99.90
11818;DHT22;5966;52.402;5.322;2023-05-07T09:03:37;16.70;99.90
11818;DHT22;5966;52.402;5.322;2023-05-07T09:06:06;16.80;99.90
11818;DHT22;5966;52.402;5.322;2023-05-07T09:08:34;16.80;99.90
11818;DHT22;5966;52.402;5.322;2023-05-07T09:11:03;16.80;99.90
11818;DHT22;5966;52.402;5.322;2023-05-07T09:13:32;16.80;99.90
11818;DHT22;5966;52.402;5.322;2023-05-07T09:16:10;16.80;99.90
11818;DHT22;5966;52.402;5.322;2023-05-07T09:18:42;16.80;99.90
11818;DHT22;5966;52.402;5.322;2023-05-07T09:21:14;16.90;99.90
11818;DHT22;5966;52.402;5.322;2023-05-07T09:23:42;17.00;99.90
11818;DHT22;5966;52.402;5.322;2023-05-07T09:26:10;17.00;99.90
11818;DHT22;5966;52.402;5.322;2023-05-07T09:28:41;16.90;99.90
11818;DHT22;5966;52.402;5.322;2023-05-07T09:31:11;17.00;99.90
11818;DHT22;5966;52.402;5.322;2023-05-07T09:33:39;17.00;99.90
11818;DHT22;5966;52.402;5.322;2023-05-07T09:36:09;17.00;99.90
11818;DHT22;5966;52.402;5.322;2023-05-07T09:38:37;17.00;99.90
11818;DHT22;5966;52.402;5.322;2023-05-07T09:41:06;17.00;99.90
11818;DHT22;5966;52.402;5.322;2023-05-07T09:43:38;17.00;99.90
11818;DHT22;5966;52.402;5.322;2023-05-07T09:46:10;17.00;99.90
11818;DHT22;5966;52.402;5.322;2023-05-07T09:48:40;17.10;99.90
11818;DHT22;5966;52.402;5.322;2023-05-07T09:51:17;17.10;99.90
11818;DHT22;5966;52.402;5.322;2023-05-07T09:53:46;17.10;99.90
11818;DHT22;5966;52.402;5.322;2023-05-07T09:56:14;17.20;99.90
11818;DHT22;5966;52.402;5.322;2023-05-07T09:58:43;17.20;99.90
11818;DHT22;5966;52.402;5.322;2023-05-07T10:01:14;17.30;99.90
11818;DHT22;5966;52.402;5.322;2023-05-07T10:03:43;17.30;99.90
11818;DHT22;5966;52.402;5.322;2023-05-07T10:06:12;17.30;99.90
11818;DHT22;5966;52.402;5.322;2023-05-07T10:08:42;17.40;99.90
11818;DHT22;5966;52.402;5.322;2023-05-07T10:11:11;17.40;99.90
11818;DHT22;5966;52.402;5.322;2023-05-07T10:13:41;17.50;99.90
11818;DHT22;5966;52.402;5.322;2023-05-07T10:16:10;17.60;99.90
11818;DHT22;5966;52.402;5.322;2023-05-07T10:18:40;17.80;99.90
11818;DHT22;5966;52.402;5.322;2023-05-07T10:21:11;17.90;99.90
11818;DHT22;5966;52.402;5.322;2023-05-07T10:23:45;18.00;99.90
11818;DHT22;5966;52.402;5.322;2023-05-07T10:26:13;18.10;99.90
11818;DHT22;5966;52.402;5.322;2023-05-07T10:28:45;18.30;99.90
11818;DHT22;5966;52.402;5.322;2023-05-07T10:31:23;18.30;99.90
11818;DHT22;5966;52.402;5.322;2023-05-07T10:33:59;18.40;99.90
11818;DHT22;5966;52.402;5.322;2023-05-07T10:36:29;18.50;99.90
11818;DHT22;5966;52.402;5.322;2023-05-07T10:38:57;18.50;99.90
11818;DHT22;5966;52.402;5.322;2023-05-07T10:41:25;18.50;99.90
11818;DHT22;5966;52.402;5.322;2023-05-07T10:43:53;18.60;99.90
11818;DHT22;5966;52.402;5.322;2023-05-07T10:46:22;18.60;99.90
11818;DHT22;5966;52.402;5.322;2023-05-07T10:49:10;18.50;99.90
11818;DHT22;5966;52.402;5.322;2023-05-07T10:51:42;18.40;99.90
11818;DHT22;5966;52.402;5.322;2023-05-07T10:54:20;18.40;99.90
11818;DHT22;5966;52.402;5.322;2023-05-07T10:56:48;18.40;99.90
11818;DHT22;5966;52.402;5.322;2023-05-07T10:59:33;18.40;99.90
11818;DHT22;5966;52.402;5.322;2023-05-07T11:02:07;18.40;99.90
11818;DHT22;5966;52.402;5.322;2023-05-07T11:04:39;18.40;99.90
11818;DHT22;5966;52.402;5.322;2023-05-07T11:07:25;18.50;99.90
11818;DHT22;5966;52.402;5.322;2023-05-07T11:10:06;18.50;99.90
11818;DHT22;5966;52.402;5.322;2023-05-07T11:12:53;18.50;99.90
11818;DHT22;5966;52.402;5.322;2023-05-07T11:15:40;18.50;99.90
11818;DHT22;5966;52.402;5.322;2023-05-07T11:18:09;18.50;99.90
11818;DHT22;5966;52.402;5.322;2023-05-07T11:20:53;18.70;99.90
11818;DHT22;5966;52.402;5.322;2023-05-07T11:23:54;18.70;99.90
11818;DHT22;5966;52.402;5.322;2023-05-07T11:26:23;18.80;99.90
11818;DHT22;5966;52.402;5.322;2023-05-07T11:28:52;19.00;99.90
11818;DHT22;5966;52.402;5.322;2023-05-07T11:31:23;19.00;99.90
11818;DHT22;5966;52.402;5.322;2023-05-07T11:33:53;19.10;99.90
11818;DHT22;5966;52.402;5.322;2023-05-07T11:36:23;19.20;99.90
11818;DHT22;5966;52.402;5.322;2023-05-07T11:38:52;19.30;99.90
11818;DHT22;5966;52.402;5.322;2023-05-07T11:41:20;19.30;99.90
11818;DHT22;5966;52.402;5.322;2023-05-07T11:43:59;19.40;99.90
11818;DHT22;5966;52.402;5.322;2023-05-07T11:46:28;19.50;99.90
11818;DHT22;5966;52.402;5.322;2023-05-07T11:48:57;19.40;99.90
11818;DHT22;5966;52.402;5.322;2023-05-07T11:51:26;19.30;99.90
11818;DHT22;5966;52.402;5.322;2023-05-07T11:53:54;19.30;99.90
11818;DHT22;5966;52.402;5.322;2023-05-07T11:56:23;19.20;99.90
11818;DHT22;5966;52.402;5.322;2023-05-07T11:58:51;19.20;99.90
11818;DHT22;5966;52.402;5.322;2023-05-07T12:01:19;19.20;99.90
11818;DHT22;5966;52.402;5.322;2023-05-07T12:03:47;19.20;99.90
11818;DHT22;5966;52.402;5.322;2023-05-07T12:06:16;19.10;99.90
11818;DHT22;5966;52.402;5.322;2023-05-07T12:08:45;19.20;99.90
11818;DHT22;5966;52.402;5.322;2023-05-07T12:11:21;19.20;99.90
11818;DHT22;5966;52.402;5.322;2023-05-07T12:13:54;19.30;99.90
11818;DHT22;5966;52.402;5.322;2023-05-07T12:16:26;19.40;99.90
11818;DHT22;5966;52.402;5.322;2023-05-07T12:18:54;19.40;99.90
11818;DHT22;5966;52.402;5.322;2023-05-07T12:21:23;19.40;99.90
11818;DHT22;5966;52.402;5.322;2023-05-07T12:23:55;19.50;99.90
11818;DHT22;5966;52.402;5.322;2023-05-07T12:26:24;19.60;99.90
11818;DHT22;5966;52.402;5.322;2023-05-07T12:28:52;19.60;99.90
11818;DHT22;5966;52.402;5.322;2023-05-07T12:31:20;19.60;99.90
11818;DHT22;5966;52.402;5.322;2023-05-07T12:33:48;19.70;99.90
11818;DHT22;5966;52.402;5.322;2023-05-07T12:36:17;19.70;99.90
11818;DHT22;5966;52.402;5.322;2023-05-07T12:38:44;19.70;99.90
11818;DHT22;5966;52.402;5.322;2023-05-07T12:41:14;19.80;99.90
11818;DHT22;5966;52.402;5.322;2023-05-07T12:43:44;19.90;99.90
11818;DHT22;5966;52.402;5.322;2023-05-07T12:46:12;20.10;99.90
11818;DHT22;5966;52.402;5.322;2023-05-07T12:48:44;20.10;99.90
11818;DHT22;5966;52.402;5.322;2023-05-07T12:51:12;20.10;99.90
11818;DHT22;5966;52.402;5.322;2023-05-07T12:53:42;20.00;99.90
11818;DHT22;5966;52.402;5.322;2023-05-07T12:56:10;19.90;99.90
11818;DHT22;5966;52.402;5.322;2023-05-07T12:58:40;20.00;99.90
11818;DHT22;5966;52.402;5.322;2023-05-07T13:01:08;20.00;99.90
11818;DHT22;5966;52.402;5.322;2023-05-07T13:03:38;20.00;99.90
11818;DHT22;5966;52.402;5.322;2023-05-07T13:06:08;20.00;99.90
11818;DHT22;5966;52.402;5.322;2023-05-07T13:08:40;20.10;99.90
11818;DHT22;5966;52.402;5.322;2023-05-07T13:11:10;20.20;99.90
11818;DHT22;5966;52.402;5.322;2023-05-07T13:13:40;20.20;99.90
11818;DHT22;5966;52.402;5.322;2023-05-07T13:16:10;20.20;99.90
11818;DHT22;5966;52.402;5.322;2023-05-07T13:18:39;20.30;99.90
11818;DHT22;5966;52.402;5.322;2023-05-07T13:21:08;20.40;99.90
11818;DHT22;5966;52.402;5.322;2023-05-07T13:23:36;20.40;99.90
11818;DHT22;5966;52.402;5.322;2023-05-07T13:26:05;20.30;99.90
11818;DHT22;5966;52.402;5.322;2023-05-07T13:28:53;20.20;99.90
11818;DHT22;5966;52.402;5.322;2023-05-07T13:31:21;20.20;99.90
11818;DHT22;5966;52.402;5.322;2023-05-07T13:33:49;20.10;99.90
11818;DHT22;5966;52.402;5.322;2023-05-07T13:36:17;20.10;99.90
11818;DHT22;5966;52.402;5.322;2023-05-07T13:38:45;20.10;99.90
11818;DHT22;5966;52.402;5.322;2023-05-07T13:41:14;20.10;99.90
11818;DHT22;5966;52.402;5.322;2023-05-07T13:43:42;20.10;99.90
11818;DHT22;5966;52.402;5.322;2023-05-07T13:46:11;20.00;99.90
11818;DHT22;5966;52.402;5.322;2023-05-07T13:48:40;20.00;99.90
11818;DHT22;5966;52.402;5.322;2023-05-07T13:51:10;19.90;99.90
11818;DHT22;5966;52.402;5.322;2023-05-07T13:53:38;19.90;99.90
11818;DHT22;5966;52.402;5.322;2023-05-07T13:56:06;19.90;99.90
11818;DHT22;5966;52.402;5.322;2023-05-07T13:58:34;19.90;99.90
11818;DHT22;5966;52.402;5.322;2023-05-07T14:01:15;20.00;99.90
11818;DHT22;5966;52.402;5.322;2023-05-07T14:03:43;20.00;99.90
11818;DHT22;5966;52.402;5.322;2023-05-07T14:06:11;20.00;99.90
11818;DHT22;5966;52.402;5.322;2023-05-07T14:08:39;19.90;99.90
11818;DHT22;5966;52.402;5.322;2023-05-07T14:11:07;19.90;99.90
11818;DHT22;5966;52.402;5.322;2023-05-07T14:13:35;19.80;99.90
11818;DHT22;5966;52.402;5.322;2023-05-07T14:16:04;19.80;99.90
11818;DHT22;5966;52.402;5.322;2023-05-07T14:18:34;19.80;99.90
11818;DHT22;5966;52.402;5.322;2023-05-07T14:21:07;19.80;99.90
11818;DHT22;5966;52.402;5.322;2023-05-07T14:23:36;19.70;99.90
11818;DHT22;5966;52.402;5.322;2023-05-07T14:26:05;19.70;99.90
11818;DHT22;5966;52.402;5.322;2023-05-07T14:28:33;19.70;99.90
11818;DHT22;5966;52.402;5.322;2023-05-07T14:31:01;19.60;99.90
11818;DHT22;5966;52.402;5.322;2023-05-07T14:33:29;19.60;99.90
11818;DHT22;5966;52.402;5.322;2023-05-07T14:35:58;19.60;99.90
11818;DHT22;5966;52.402;5.322;2023-05-07T14:38:26;19.50;99.90
11818;DHT22;5966;52.402;5.322;2023-05-07T14:40:54;19.50;99.90
11818;DHT22;5966;52.402;5.322;2023-05-07T14:43:23;19.50;99.90
11818;DHT22;5966;52.402;5.322;2023-05-07T14:45:51;19.50;99.90
11818;DHT22;5966;52.402;5.322;2023-05-07T14:48:20;19.40;99.90
11818;DHT22;5966;52.402;5.322;2023-05-07T14:50:47;19.40;99.90
11818;DHT22;5966;52.402;5.322;2023-05-07T14:53:18;19.40;99.90
11818;DHT22;5966;52.402;5.322;2023-05-07T14:58:18;19.30;99.90
11818;DHT22;5966;52.402;5.322;2023-05-07T15:00:48;19.30;99.90
11818;DHT22;5966;52.402;5.322;2023-05-07T15:03:17;19.30;99.90
11818;DHT22;5966;52.402;5.322;2023-05-07T15:05:45;19.20;99.90
11818;DHT22;5966;52.402;5.322;2023-05-07T15:08:17;19.20;99.90
11818;DHT22;5966;52.402;5.322;2023-05-07T15:10:45;19.20;99.90
11818;DHT22;5966;52.402;5.322;2023-05-07T15:13:13;19.20;99.90
11818;DHT22;5966;52.402;5.322;2023-05-07T15:15:42;19.10;99.90
11818;DHT22;5966;52.402;5.322;2023-05-07T15:18:11;19.10;99.90
11818;DHT22;5966;52.402;5.322;2023-05-07T15:20:40;19.10;99.90
11818;DHT22;5966;52.402;5.322;2023-05-07T15:23:08;19.00;99.90
11818;DHT22;5966;52.402;5.322;2023-05-07T15:25:40;18.90;99.90
11818;DHT22;5966;52.402;5.322;2023-05-07T15:28:08;18.90;99.90
11818;DHT22;5966;52.402;5.322;2023-05-07T15:30:36;18.90;99.90
11818;DHT22;5966;52.402;5.322;2023-05-07T15:33:04;18.90;99.90
11818;DHT22;5966;52.402;5.322;2023-05-07T15:35:32;18.80;99.90
11818;DHT22;5966;52.402;5.322;2023-05-07T15:38:02;18.90;99.90
11818;DHT22;5966;52.402;5.322;2023-05-07T15:40:30;18.80;99.90
11818;DHT22;5966;52.402;5.322;2023-05-07T15:43:00;18.80;99.90
11818;DHT22;5966;52.402;5.322;2023-05-07T15:45:29;18.80;99.90
11818;DHT22;5966;52.402;5.322;2023-05-07T15:48:01;18.70;99.90
11818;DHT22;5966;52.402;5.322;2023-05-07T15:50:29;18.50;99.90
11818;DHT22;5966;52.402;5.322;2023-05-07T15:53:00;18.30;99.90
11818;DHT22;5966;52.402;5.322;2023-05-07T15:55:30;18.20;99.90
11818;DHT22;5966;52.402;5.322;2023-05-07T15:58:17;18.00;99.90
11818;DHT22;5966;52.402;5.322;2023-05-07T16:00:46;17.80;99.90
11818;DHT22;5966;52.402;5.322;2023-05-07T16:03:14;17.70;99.90